createdAt,value
2023-03-17T00:00:37.885Z,65.39
2023-03-17T00:03:05.803Z,65.56
2023-03-17T00:05:34.046Z,65.63
2023-03-17T00:08:07.254Z,65.41
2023-03-17T00:10:33.798Z,65.59
2023-03-17T00:13:00.351Z,65.59
2023-03-17T00:15:27.421Z,65.43
2023-03-17T00:17:55.886Z,65.39
2023-03-17T00:20:32.492Z,65.29
2023-03-17T00:23:01.503Z,65.68
2023-03-17T00:25:30.664Z,65.47
2023-03-17T00:28:00.575Z,65.71
2023-03-17T00:30:29.038Z,65.77
2023-03-17T00:32:58.075Z,65.54
2023-03-17T00:35:27.846Z,65.57
2023-03-17T00:37:57.324Z,65.64
2023-03-17T00:40:30.850Z,65.81
2023-03-17T00:43:00.064Z,66.23
2023-03-17T00:45:29.953Z,66.40
2023-03-17T00:47:56.927Z,66.00
2023-03-17T00:50:26.575Z,66.30
2023-03-17T00:52:56.228Z,66.25
2023-03-17T00:55:24.183Z,66.14
2023-03-17T01:01:40.291Z,66.35
2023-03-17T01:04:06.873Z,66.49
2023-03-17T01:06:33.773Z,66.54
2023-03-17T01:09:00.629Z,66.81
2023-03-17T01:11:27.157Z,66.39
2023-03-17T01:13:54.624Z,66.16
2023-03-17T01:16:21.638Z,66.32
2023-03-17T01:18:48.476Z,65.94
2023-03-17T01:21:15.637Z,66.00
2023-03-17T01:23:42.305Z,66.08
2023-03-17T01:26:09.610Z,66.38
2023-03-17T01:28:36.077Z,66.45
2023-03-17T01:31:02.812Z,66.37
2023-03-17T01:33:29.434Z,65.86
2023-03-17T01:35:56.108Z,66.12
2023-03-17T01:38:22.706Z,66.38
2023-03-17T01:40:51.636Z,66.24
2023-03-17T01:43:29.511Z,66.32
2023-03-17T01:46:14.748Z,66.18
2023-03-17T01:48:48.879Z,66.40
2023-03-17T01:51:35.862Z,66.22
2023-03-17T01:54:08.454Z,66.41
2023-03-17T01:56:36.519Z,66.35
2023-03-17T01:59:07.491Z,66.35
2023-03-17T02:01:38.731Z,66.56
2023-03-17T02:04:06.414Z,66.83
2023-03-17T02:06:33.472Z,66.56
2023-03-17T02:09:01.580Z,66.76
2023-03-17T02:11:28.730Z,66.70
2023-03-17T02:13:55.650Z,66.71
2023-03-17T02:16:22.958Z,66.45
2023-03-17T02:18:49.470Z,66.26
2023-03-17T02:21:54.351Z,66.27
2023-03-17T02:24:30.899Z,66.84
2023-03-17T02:27:02.573Z,66.63
2023-03-17T02:29:32.180Z,66.52
2023-03-17T02:31:59.121Z,66.62
2023-03-17T02:34:25.674Z,66.74
2023-03-17T02:36:52.358Z,66.36
2023-03-17T02:39:19.076Z,66.14
2023-03-17T02:41:46.177Z,66.23
2023-03-17T02:44:12.739Z,66.52
2023-03-17T02:46:39.260Z,66.01
2023-03-17T02:49:06.137Z,66.33
2023-03-17T02:51:32.907Z,66.33
2023-03-17T02:53:59.524Z,66.35
2023-03-17T02:56:26.142Z,66.38
2023-03-17T02:58:52.754Z,66.25
2023-03-17T03:01:19.314Z,66.65
2023-03-17T03:03:46.318Z,66.60
2023-03-17T03:06:13.064Z,66.86
2023-03-17T03:08:39.620Z,67.00
2023-03-17T03:11:06.313Z,67.05
2023-03-17T03:13:33.033Z,67.02
2023-03-17T03:16:01.171Z,66.78
2023-03-17T03:18:28.166Z,66.74
2023-03-17T03:20:54.690Z,66.82
2023-03-17T03:23:21.756Z,66.96
2023-03-17T03:25:48.935Z,67.10
2023-03-17T03:28:15.521Z,67.29
2023-03-17T03:30:44.676Z,67.15
2023-03-17T03:33:14.336Z,67.11
2023-03-17T03:35:41.524Z,67.39
2023-03-17T03:38:08.666Z,67.23
2023-03-17T03:40:36.622Z,67.33
2023-03-17T03:43:16.109Z,67.16
2023-03-17T03:45:48.551Z,66.91
2023-03-17T03:48:15.020Z,66.93
2023-03-17T03:50:41.505Z,66.89
2023-03-17T03:53:08.167Z,66.64
2023-03-17T03:55:34.665Z,66.53
2023-03-17T03:58:01.216Z,66.69
2023-03-17T04:00:27.740Z,66.80
2023-03-17T04:02:54.467Z,66.79
2023-03-17T04:05:21.063Z,66.96
2023-03-17T04:07:47.962Z,66.80
2023-03-17T04:10:16.389Z,66.92
2023-03-17T04:12:43.425Z,66.61
2023-03-17T04:15:13.759Z,66.85
2023-03-17T04:17:40.243Z,66.79
2023-03-17T04:20:07.152Z,66.84
2023-03-17T04:22:33.751Z,67.09
2023-03-17T04:25:00.409Z,66.94
2023-03-17T04:27:27.111Z,67.20
2023-03-17T04:29:53.907Z,66.64
2023-03-17T04:32:20.459Z,66.87
2023-03-17T04:34:46.888Z,67.40
2023-03-17T04:37:13.912Z,67.37
2023-03-17T04:39:40.567Z,67.72
2023-03-17T04:42:07.634Z,67.64
2023-03-17T04:44:34.508Z,67.66
2023-03-17T04:47:01.275Z,67.51
2023-03-17T04:49:28.225Z,67.36
2023-03-17T04:51:54.863Z,67.78
2023-03-17T04:54:22.074Z,67.52
2023-03-17T04:56:48.659Z,67.53
2023-03-17T04:59:16.248Z,67.49
2023-03-17T05:01:42.713Z,67.67
2023-03-17T05:04:11.178Z,67.66
2023-03-17T05:06:39.550Z,67.33
2023-03-17T05:09:06.568Z,67.22
2023-03-17T05:11:33.158Z,67.44
2023-03-17T05:14:00.119Z,67.40
2023-03-17T05:16:26.716Z,67.61
2023-03-17T05:18:53.308Z,67.42
2023-03-17T05:21:19.753Z,67.37
2023-03-17T05:23:46.195Z,67.49
2023-03-17T05:26:13.100Z,67.49
2023-03-17T05:28:39.562Z,67.24
2023-03-17T05:31:06.981Z,67.61
2023-03-17T05:33:34.831Z,67.65
2023-03-17T05:36:01.680Z,67.97
2023-03-17T05:38:28.259Z,67.98
2023-03-17T05:40:54.754Z,68.16
2023-03-17T05:43:24.691Z,68.26
2023-03-17T05:45:51.183Z,67.81
2023-03-17T05:48:18.381Z,67.72
2023-03-17T05:50:44.928Z,67.97
2023-03-17T05:53:11.386Z,67.96
2023-03-17T05:55:39.046Z,67.83
2023-03-17T05:58:06.580Z,67.55
2023-03-17T06:00:33.629Z,67.70
2023-03-17T06:03:00.226Z,68.12
2023-03-17T06:05:27.262Z,67.99
2023-03-17T06:07:56.341Z,68.06
2023-03-17T06:10:24.251Z,68.05
2023-03-17T06:12:51.004Z,67.74
2023-03-17T06:15:17.519Z,67.78
2023-03-17T06:17:45.458Z,67.45
2023-03-17T06:20:12.385Z,67.59
2023-03-17T06:22:46.260Z,67.57
2023-03-17T06:25:18.993Z,67.32
2023-03-17T06:27:45.485Z,67.43
2023-03-17T06:30:12.565Z,67.17
2023-03-17T06:32:39.154Z,67.20
2023-03-17T06:35:07.578Z,66.75
2023-03-17T06:37:35.416Z,66.60
2023-03-17T06:40:03.361Z,66.69
2023-03-17T06:42:29.796Z,66.40
2023-03-17T06:45:04.050Z,66.31
2023-03-17T06:47:30.733Z,66.07
2023-03-17T06:49:57.718Z,65.68
2023-03-17T06:52:25.360Z,65.70
2023-03-17T06:54:51.969Z,65.38
2023-03-17T06:57:18.711Z,65.39
2023-03-17T06:59:45.878Z,65.23
2023-03-17T07:02:12.782Z,65.16
2023-03-17T07:04:39.556Z,64.84
2023-03-17T07:07:06.950Z,64.83
2023-03-17T07:09:34.605Z,64.60
2023-03-17T07:12:05.205Z,64.20
2023-03-17T07:14:36.680Z,63.62
2023-03-17T07:17:05.063Z,63.34
2023-03-17T07:19:31.924Z,62.63
2023-03-17T07:21:59.212Z,62.54
2023-03-17T07:24:26.102Z,62.56
2023-03-17T07:26:52.898Z,61.92
2023-03-17T07:33:40.667Z,61.46
2023-03-17T07:36:09.351Z,61.17
2023-03-17T07:38:37.096Z,60.71
2023-03-17T07:41:04.800Z,60.39
2023-03-17T07:43:31.946Z,60.11
2023-03-17T07:45:59.062Z,59.44
2023-03-17T07:48:25.681Z,59.35
2023-03-17T07:50:52.463Z,59.39
2023-03-17T07:53:19.299Z,59.45
2023-03-17T07:55:47.290Z,59.89
2023-03-17T07:58:15.834Z,60.08
2023-03-17T08:00:42.592Z,60.11
2023-03-17T08:03:10.957Z,59.79
2023-03-17T08:05:38.074Z,59.80
2023-03-17T08:08:06.843Z,60.29
2023-03-17T08:10:34.428Z,60.33
2023-03-17T08:13:02.073Z,60.35
2023-03-17T08:15:30.861Z,60.18
2023-03-17T08:17:57.589Z,59.67
2023-03-17T08:20:24.046Z,59.29
2023-03-17T08:22:50.657Z,59.09
2023-03-17T08:25:17.856Z,58.80
2023-03-17T08:27:44.967Z,58.30
2023-03-17T08:30:13.097Z,58.21
2023-03-17T08:32:40.118Z,58.04
2023-03-17T08:35:06.876Z,57.97
2023-03-17T08:37:33.381Z,56.80
2023-03-17T08:40:01.222Z,56.08
2023-03-17T08:42:28.052Z,54.93
2023-03-17T08:44:54.691Z,55.84
2023-03-17T08:47:21.793Z,55.71
2023-03-17T08:49:48.450Z,55.21
2023-03-17T08:52:16.235Z,54.60
2023-03-17T08:54:43.213Z,54.56
2023-03-17T08:57:10.040Z,55.07
2023-03-17T08:59:37.237Z,55.56
2023-03-17T09:02:03.964Z,55.62
2023-03-17T09:04:30.537Z,55.09
2023-03-17T09:07:04.800Z,56.44
2023-03-17T09:09:32.696Z,55.90
2023-03-17T09:11:59.513Z,56.24
2023-03-17T09:14:25.997Z,56.10
2023-03-17T09:16:52.531Z,56.39
2023-03-17T09:19:19.442Z,56.24
2023-03-17T09:21:45.966Z,56.32
2023-03-17T09:24:12.725Z,56.00
2023-03-17T09:26:39.556Z,56.11
2023-03-17T09:29:07.268Z,56.14
2023-03-17T09:31:36.736Z,56.01
2023-03-17T09:34:05.227Z,55.81
2023-03-17T09:36:33.198Z,55.62
2023-03-17T09:39:00.732Z,55.30
2023-03-17T09:41:57.078Z,54.92
2023-03-17T09:44:29.656Z,54.52
2023-03-17T09:47:10.270Z,54.69
2023-03-17T09:49:52.478Z,54.63
2023-03-17T09:52:25.823Z,54.53
2023-03-17T09:54:52.841Z,53.73
2023-03-17T09:57:29.549Z,53.38
2023-03-17T10:00:02.262Z,52.84
2023-03-17T10:02:32.772Z,53.25
2023-03-17T10:05:11.709Z,53.37
2023-03-17T10:08:29.031Z,52.46
2023-03-17T10:11:07.297Z,51.71
2023-03-17T10:13:49.060Z,51.04
2023-03-17T10:16:22.123Z,51.75
2023-03-17T10:18:57.673Z,51.66
2023-03-17T10:21:30.034Z,52.24
2023-03-17T10:24:00.050Z,52.57
2023-03-17T10:26:34.661Z,52.77
2023-03-17T10:29:06.030Z,52.70
2023-03-17T10:31:35.527Z,52.48
2023-03-17T10:34:13.792Z,52.30
2023-03-17T10:36:44.445Z,51.92
2023-03-17T10:39:14.483Z,52.12
2023-03-17T10:41:55.593Z,51.65
2023-03-17T10:44:45.142Z,51.57
2023-03-17T10:47:38.160Z,51.64
2023-03-17T10:50:21.699Z,50.99
2023-03-17T10:52:53.583Z,50.57
2023-03-17T10:55:23.309Z,49.34
2023-03-17T10:58:01.040Z,48.98
2023-03-17T11:00:33.928Z,48.38
2023-03-17T11:03:09.686Z,47.73
2023-03-17T11:05:38.972Z,46.73
2023-03-17T11:08:20.092Z,46.35
2023-03-17T11:10:53.505Z,46.08
2023-03-17T11:13:23.324Z,47.06
2023-03-17T11:15:54.569Z,46.35
2023-03-17T11:18:32.862Z,47.34
2023-03-17T11:21:06.179Z,47.96
2023-03-17T11:23:53.926Z,48.99
2023-03-17T11:26:32.115Z,49.07
2023-03-17T11:29:04.933Z,48.40
2023-03-17T11:31:35.764Z,48.43
2023-03-17T11:34:14.146Z,48.72
2023-03-17T11:37:00.158Z,47.98
2023-03-17T11:39:32.317Z,47.94
2023-03-17T11:42:21.497Z,46.73
2023-03-17T11:45:22.145Z,47.19
2023-03-17T11:48:10.870Z,46.46
2023-03-17T11:50:58.194Z,46.50
2023-03-17T11:53:45.625Z,45.96
2023-03-17T11:56:28.219Z,46.11
2023-03-17T11:59:05.698Z,45.76
2023-03-17T12:01:55.987Z,45.66
2023-03-17T12:04:34.399Z,45.52
2023-03-17T12:07:09.662Z,47.40
2023-03-17T12:09:49.241Z,47.13
2023-03-17T12:12:24.225Z,47.92
2023-03-17T12:14:53.331Z,48.73
2023-03-17T12:17:52.272Z,49.01
2023-03-17T12:20:26.275Z,49.11
2023-03-17T12:23:02.566Z,48.93
2023-03-17T12:25:51.417Z,48.97
2023-03-17T12:28:23.163Z,49.17
2023-03-17T12:30:59.418Z,49.79
2023-03-17T12:33:36.695Z,49.61
2023-03-17T12:36:05.359Z,49.44
2023-03-17T12:38:39.992Z,49.51
2023-03-17T12:42:01.715Z,49.22
2023-03-17T12:44:43.228Z,48.90
2023-03-17T12:47:37.884Z,48.45
2023-03-17T12:50:28.721Z,49.34
2023-03-17T12:53:19.419Z,49.63
2023-03-17T12:55:49.244Z,49.71
2023-03-17T12:58:27.087Z,48.36
2023-03-17T13:01:07.299Z,48.05
2023-03-17T13:03:40.865Z,48.33
2023-03-17T13:06:16.576Z,48.70
2023-03-17T13:08:43.228Z,48.38
2023-03-17T13:11:31.520Z,48.61
2023-03-17T13:14:14.453Z,47.95
2023-03-17T13:16:41.757Z,48.21
2023-03-17T13:19:23.240Z,48.64
2023-03-17T13:21:52.616Z,49.04
2023-03-17T13:24:22.656Z,48.74
2023-03-17T13:27:04.530Z,48.83
2023-03-17T13:29:34.150Z,48.65
2023-03-17T13:32:15.874Z,48.90
2023-03-17T13:34:53.963Z,48.70
2023-03-17T13:37:31.347Z,49.20
2023-03-17T13:40:10.675Z,48.59
2023-03-17T13:42:48.776Z,48.98
2023-03-17T13:45:47.110Z,49.05
2023-03-17T13:48:38.116Z,49.09
2023-03-17T13:51:15.343Z,49.18
2023-03-17T13:53:44.866Z,49.54
2023-03-17T13:56:32.824Z,49.51
2023-03-17T13:59:03.179Z,49.84
2023-03-17T14:01:44.037Z,49.71
2023-03-17T14:04:47.581Z,49.92
2023-03-17T14:07:49.113Z,49.76
2023-03-17T14:10:29.487Z,50.05
2023-03-17T14:13:32.276Z,50.40
2023-03-17T14:16:25.880Z,50.31
2023-03-17T14:22:30.430Z,50.41
2023-03-17T14:25:11.987Z,50.49
2023-03-17T14:31:28.200Z,50.81
2023-03-17T14:34:15.887Z,50.84
2023-03-17T14:36:51.270Z,51.27
2023-03-17T14:39:23.760Z,51.22
2023-03-17T14:42:06.769Z,51.33
2023-03-17T14:44:38.420Z,51.44
2023-03-17T14:47:21.662Z,51.56
2023-03-17T14:49:56.666Z,52.00
2023-03-17T14:52:34.089Z,51.86
2023-03-17T14:55:02.300Z,51.76
2023-03-17T14:57:33.136Z,51.60
2023-03-17T15:00:27.965Z,51.93
2023-03-17T15:02:59.799Z,52.11
2023-03-17T15:05:42.099Z,52.73
2023-03-17T15:08:30.081Z,52.87
2023-03-17T15:11:04.654Z,52.93
2023-03-17T15:16:44.320Z,53.08
2023-03-17T15:19:37.071Z,53.21
2023-03-17T15:22:20.960Z,53.19
2023-03-17T15:24:59.203Z,53.34
2023-03-17T15:27:26.567Z,53.12
2023-03-17T15:29:53.189Z,53.49
2023-03-17T15:32:23.504Z,53.17
2023-03-17T15:34:52.705Z,53.56
2023-03-17T15:37:28.621Z,53.43
2023-03-17T15:39:56.706Z,53.33
2023-03-17T15:42:27.338Z,53.36
2023-03-17T15:44:55.075Z,53.65
2023-03-17T15:47:22.865Z,53.80
2023-03-17T15:49:51.825Z,53.81
2023-03-17T15:52:27.510Z,54.09
2023-03-17T15:54:56.774Z,54.26
2023-03-17T15:57:23.733Z,54.33
2023-03-17T15:59:50.714Z,54.44
2023-03-17T16:02:33.645Z,54.72
2023-03-17T16:05:03.327Z,54.81
2023-03-17T16:07:31.332Z,54.82
2023-03-17T16:09:57.906Z,54.92
2023-03-17T16:12:24.988Z,54.82
2023-03-17T16:14:51.728Z,54.68
2023-03-17T16:17:30.055Z,54.59
2023-03-17T16:19:57.496Z,54.72
2023-03-17T16:22:43.781Z,55.14
2023-03-17T16:25:28.147Z,55.33
2023-03-17T16:27:57.030Z,55.28
2023-03-17T16:30:27.506Z,54.98
2023-03-17T16:32:56.535Z,55.19
2023-03-17T16:35:42.658Z,55.49
2023-03-17T16:38:16.884Z,55.62
2023-03-17T16:40:46.881Z,55.70
2023-03-17T16:43:29.965Z,55.80
2023-03-17T16:46:03.191Z,55.89
2023-03-17T16:48:31.186Z,56.23
2023-03-17T16:50:58.512Z,56.84
2023-03-17T16:53:25.396Z,61.30
2023-03-17T16:55:54.152Z,64.79
2023-03-17T16:58:26.240Z,66.65
2023-03-17T17:00:57.324Z,64.98
2023-03-17T17:03:24.020Z,66.17
2023-03-17T17:05:51.048Z,64.13
2023-03-17T17:08:17.742Z,64.45
2023-03-17T17:10:44.370Z,64.26
2023-03-17T17:13:12.112Z,63.83
2023-03-17T17:15:39.632Z,63.80
2023-03-17T17:18:11.540Z,63.01
2023-03-17T17:20:39.800Z,63.42
2023-03-17T17:23:11.041Z,62.85
2023-03-17T17:25:37.941Z,63.05
2023-03-17T17:28:05.076Z,62.75
2023-03-17T17:30:31.879Z,62.51
2023-03-17T17:33:00.296Z,62.94
2023-03-17T17:35:30.711Z,63.27
2023-03-17T17:37:59.418Z,62.93
2023-03-17T17:40:26.276Z,63.38
2023-03-17T17:42:53.796Z,63.51
2023-03-17T17:45:21.677Z,63.91
2023-03-17T17:47:48.117Z,63.80
2023-03-17T17:50:25.047Z,62.93
2023-03-17T17:52:52.470Z,62.94
2023-03-17T17:55:19.439Z,63.03
2023-03-17T17:57:47.091Z,63.04
2023-03-17T18:00:17.350Z,62.93
2023-03-17T18:02:44.944Z,62.53
2023-03-17T18:05:12.840Z,63.18
2023-03-17T18:07:40.438Z,63.57
2023-03-17T18:10:07.845Z,64.00
2023-03-17T18:12:34.340Z,64.30
2023-03-17T18:15:00.989Z,64.64
2023-03-17T18:17:27.588Z,65.00
2023-03-17T18:19:54.702Z,65.40
2023-03-17T18:22:21.820Z,65.88
2023-03-17T18:24:49.433Z,66.08
2023-03-17T18:27:16.894Z,66.36
2023-03-17T18:29:43.784Z,66.44
2023-03-17T18:32:12.429Z,66.42
2023-03-17T18:34:46.320Z,66.68
2023-03-17T18:37:15.506Z,66.64
2023-03-17T18:39:42.834Z,67.14
2023-03-17T18:42:09.854Z,67.21
2023-03-17T18:44:37.416Z,67.40
2023-03-17T18:47:04.447Z,67.97
2023-03-17T18:49:31.125Z,68.28
2023-03-17T18:51:59.592Z,68.59
2023-03-17T18:58:40.781Z,68.18
2023-03-17T19:01:07.868Z,68.38
2023-03-17T19:03:35.059Z,67.99
2023-03-17T19:06:13.947Z,67.81
2023-03-17T19:08:40.715Z,67.73
2023-03-17T19:11:09.598Z,67.29
2023-03-17T19:13:37.482Z,67.43
2023-03-17T19:16:04.583Z,67.24
2023-03-17T19:18:31.953Z,67.37
2023-03-17T19:21:00.236Z,67.44
2023-03-17T19:23:26.785Z,67.05
2023-03-17T19:25:53.595Z,66.81
2023-03-17T19:28:20.530Z,66.84
2023-03-17T19:30:47.415Z,66.67
2023-03-17T19:33:15.939Z,66.72
2023-03-17T19:35:47.356Z,66.78
2023-03-17T19:38:13.918Z,66.97
2023-03-17T19:40:40.640Z,67.55
2023-03-17T19:43:07.197Z,67.66
2023-03-17T19:45:33.845Z,68.33
2023-03-17T19:48:00.677Z,67.82
2023-03-17T19:50:27.201Z,67.09
2023-03-17T19:52:54.270Z,67.22
2023-03-17T19:55:21.648Z,67.12
2023-03-17T19:57:48.359Z,67.15
2023-03-17T20:00:15.542Z,66.96
2023-03-17T20:02:42.229Z,66.96
2023-03-17T20:05:09.263Z,67.14
2023-03-17T20:07:36.075Z,67.19
2023-03-17T20:10:04.572Z,67.12
2023-03-17T20:12:32.772Z,67.29
2023-03-17T20:15:01.129Z,67.39
2023-03-17T20:17:28.084Z,67.50
2023-03-17T20:19:54.634Z,68.43
2023-03-17T20:22:21.367Z,69.69
2023-03-17T20:24:47.973Z,70.17
2023-03-17T20:27:17.483Z,70.52
2023-03-17T20:29:45.785Z,70.46
2023-03-17T20:32:15.680Z,71.33
2023-03-17T20:34:43.763Z,72.20
2023-03-17T20:37:11.919Z,72.84
2023-03-17T20:39:38.534Z,74.12
2023-03-17T20:42:10.074Z,75.83
2023-03-17T20:44:38.019Z,77.07
2023-03-17T20:47:04.574Z,77.44
2023-03-17T20:49:31.875Z,79.47
2023-03-17T21:24:39.940Z,86.21
2023-03-17T21:27:11.923Z,86.86
2023-03-17T21:29:40.125Z,87.23
2023-03-17T21:32:09.681Z,87.12
2023-03-17T21:34:37.388Z,87.69
2023-03-17T21:50:31.986Z,88.33
2023-03-17T21:52:58.691Z,88.53
2023-03-17T21:55:25.562Z,88.86
2023-03-17T21:57:52.832Z,89.07
2023-03-17T22:00:19.795Z,89.14
2023-03-17T22:02:46.746Z,89.46
2023-03-17T22:18:40.701Z,90.45
2023-03-17T22:21:08.455Z,90.63
2023-03-17T22:23:41.255Z,90.70
2023-03-17T22:26:24.276Z,90.51
2023-03-17T22:29:01.769Z,90.58
2023-03-17T22:31:30.036Z,90.56
2023-03-17T22:34:10.161Z,90.72
2023-03-17T22:36:37.419Z,90.82
2023-03-17T22:39:10.974Z,90.72
2023-03-17T22:41:39.479Z,90.37
2023-03-17T22:44:14.408Z,90.82
2023-03-17T22:46:41.448Z,91.00
2023-03-17T22:49:08.909Z,91.03
2023-03-17T22:51:47.257Z,90.65
2023-03-17T22:54:32.049Z,90.65
2023-03-17T22:56:58.639Z,90.98
2023-03-17T22:59:25.965Z,91.13
2023-03-17T23:02:01.239Z,90.92
2023-03-17T23:04:36.524Z,91.13
2023-03-17T23:07:03.200Z,91.25
2023-03-17T23:09:29.761Z,91.00
2023-03-17T23:11:56.477Z,91.21
2023-03-17T23:14:23.556Z,91.53
2023-03-17T23:16:53.556Z,91.59
2023-03-17T23:19:20.491Z,91.54
2023-03-17T23:21:47.364Z,91.67
2023-03-17T23:24:13.844Z,91.63
2023-03-17T23:26:40.598Z,91.55
2023-03-17T23:29:09.270Z,91.34
2023-03-17T23:31:37.153Z,91.45
2023-03-17T23:34:04.936Z,91.47
2023-03-17T23:36:31.467Z,91.52
2023-03-17T23:38:58.171Z,91.52
2023-03-17T23:41:24.947Z,91.46
2023-03-17T23:43:51.741Z,91.18
2023-03-17T23:46:19.111Z,91.27
2023-03-17T23:48:45.812Z,91.28
2023-03-17T23:51:13.516Z,91.09
2023-03-17T23:53:40.734Z,91.23
2023-03-17T23:56:09.396Z,91.28
2023-03-17T23:58:36.268Z,91.21
